createdAt,value
2018-07-02T00:01:57.201Z,80.20
2018-07-02T00:04:29.574Z,81.20
2018-07-02T00:07:09.656Z,79.80
2018-07-02T00:09:37.180Z,81.10
2018-07-02T00:12:05.541Z,81.10
2018-07-02T00:14:33.109Z,82.20
2018-07-02T00:17:00.619Z,81.60
2018-07-02T00:19:35.642Z,82.20
2018-07-02T00:22:03.244Z,82.40
2018-07-02T00:24:30.794Z,82.30
2018-07-02T00:26:59.447Z,82.40
2018-07-02T00:29:27.024Z,83.00
2018-07-02T00:31:55.106Z,83.80
2018-07-02T00:34:22.765Z,84.30
2018-07-02T00:36:55.625Z,83.60
2018-07-02T00:39:23.645Z,84.10
2018-07-02T00:41:51.208Z,84.40
2018-07-02T00:46:56.538Z,85.40
2018-07-02T00:49:24.043Z,86.00
2018-07-02T00:51:56.572Z,85.40
2018-07-02T00:54:25.102Z,86.30
2018-07-02T00:56:53.011Z,86.30
2018-07-02T00:59:20.675Z,87.00
2018-07-02T01:01:52.046Z,86.80
2018-07-02T01:04:20.190Z,87.90
2018-07-02T01:06:47.902Z,87.50
2018-07-02T01:09:16.285Z,88.20
2018-07-02T01:11:44.566Z,88.10
2018-07-02T01:14:12.106Z,88.60
2018-07-02T01:16:39.710Z,88.30
2018-07-02T01:19:10.050Z,88.60
2018-07-02T01:21:38.069Z,89.20
2018-07-02T01:24:05.863Z,89.10
2018-07-02T01:26:33.294Z,90.20
2018-07-02T01:29:05.674Z,89.90
2018-07-02T01:31:43.889Z,90.10
2018-07-02T01:34:11.428Z,90.30
2018-07-02T01:36:38.950Z,90.70
2018-07-02T01:39:08.454Z,90.90
2018-07-02T01:41:36.111Z,91.20
2018-07-02T01:44:03.845Z,91.90
2018-07-02T01:46:31.368Z,92.00
2018-07-02T01:49:02.506Z,91.90
2018-07-02T01:51:30.011Z,92.40
2018-07-02T01:53:57.696Z,92.70
2018-07-02T01:56:25.186Z,92.40
2018-07-02T01:58:53.207Z,92.20
2018-07-02T02:01:21.137Z,92.30
2018-07-02T02:03:48.672Z,92.40
2018-07-02T02:06:16.721Z,92.40
2018-07-02T02:08:44.173Z,92.50
2018-07-02T02:11:11.589Z,92.80
2018-07-02T02:13:39.185Z,92.90
2018-07-02T02:16:06.654Z,93.50
2018-07-02T02:18:34.029Z,93.80
2018-07-02T02:21:01.390Z,93.30
2018-07-02T02:23:28.771Z,93.30
2018-07-02T02:25:56.205Z,93.40
2018-07-02T02:28:23.990Z,93.30
2018-07-02T02:30:51.402Z,93.30
2018-07-02T02:33:18.896Z,93.40
2018-07-02T02:35:46.334Z,93.60
2018-07-02T02:38:13.810Z,93.40
2018-07-02T02:40:41.213Z,93.70
2018-07-02T02:43:08.589Z,93.80
2018-07-02T02:45:36.005Z,93.70
2018-07-02T02:48:03.621Z,93.70
2018-07-02T02:50:31.037Z,93.70
2018-07-02T02:52:58.406Z,94.00
2018-07-02T02:55:25.821Z,94.10
2018-07-02T02:57:53.210Z,94.00
2018-07-02T03:00:20.614Z,94.40
2018-07-02T03:02:47.993Z,95.10
2018-07-02T03:05:15.424Z,95.30
2018-07-02T03:07:43.036Z,95.50
2018-07-02T03:10:10.415Z,96.00
2018-07-02T03:15:05.305Z,95.70
2018-07-02T03:17:32.699Z,96.40
2018-07-02T03:20:00.215Z,96.00
2018-07-02T03:22:27.638Z,95.40
2018-07-02T03:24:55.030Z,95.40
2018-07-02T03:27:22.430Z,95.30
2018-07-02T03:29:49.921Z,95.20
2018-07-02T03:32:17.374Z,95.20
2018-07-02T03:34:44.815Z,95.40
2018-07-02T03:37:12.278Z,95.00
2018-07-02T03:39:39.641Z,95.30
2018-07-02T03:42:07.142Z,95.00
2018-07-02T03:44:34.528Z,95.10
2018-07-02T03:47:01.960Z,95.10
2018-07-02T03:49:29.333Z,95.30
2018-07-02T03:51:56.867Z,95.30
2018-07-02T03:54:24.265Z,95.30
2018-07-02T03:56:51.678Z,95.20
2018-07-02T03:59:19.481Z,95.30
2018-07-02T04:01:46.849Z,95.80
2018-07-02T04:04:14.277Z,95.20
2018-07-02T04:06:41.742Z,95.20
2018-07-02T04:09:11.476Z,95.60
2018-07-02T04:11:38.843Z,95.40
2018-07-02T04:14:06.428Z,95.50
2018-07-02T04:16:33.811Z,95.40
2018-07-02T04:19:11.233Z,95.30
2018-07-02T04:21:40.221Z,95.30
2018-07-02T04:24:07.873Z,96.10
2018-07-02T04:26:35.350Z,96.20
2018-07-02T04:29:04.139Z,96.10
2018-07-02T04:31:31.593Z,95.50
2018-07-02T04:33:59.165Z,95.30
2018-07-02T04:36:26.554Z,95.30
2018-07-02T04:38:56.129Z,95.10
2018-07-02T04:41:26.110Z,94.90
2018-07-02T04:43:53.548Z,95.10
2018-07-02T04:46:20.923Z,95.00
2018-07-02T04:48:48.341Z,95.10
2018-07-02T04:51:15.837Z,95.60
2018-07-02T04:56:10.749Z,95.20
2018-07-02T04:58:38.318Z,94.80
2018-07-02T05:01:06.676Z,94.50
2018-07-02T05:03:34.067Z,94.10
2018-07-02T05:06:01.529Z,94.20
2018-07-02T05:08:28.878Z,93.80
2018-07-02T05:10:56.451Z,94.30
2018-07-02T05:13:23.873Z,93.60
2018-07-02T05:15:51.230Z,94.00
2018-07-02T05:18:18.655Z,93.70
2018-07-02T05:20:47.243Z,93.60
2018-07-02T05:23:38.439Z,93.60
2018-07-02T05:26:06.821Z,93.90
2018-07-02T05:28:41.121Z,94.20
2018-07-02T05:31:09.087Z,94.20
2018-07-02T05:33:36.706Z,94.00
2018-07-02T05:36:04.708Z,93.20
2018-07-02T05:38:32.686Z,93.70
2018-07-02T05:41:00.489Z,93.60
2018-07-02T05:43:28.319Z,92.90
2018-07-02T05:45:56.081Z,92.70
2018-07-02T05:48:28.915Z,91.10
2018-07-02T05:51:00.600Z,90.10
2018-07-02T05:53:28.292Z,89.10
2018-07-02T05:55:56.106Z,85.90
2018-07-02T05:58:23.948Z,85.50
2018-07-02T06:10:27.468Z,84.10
2018-07-02T06:12:55.239Z,83.20
2018-07-02T06:15:22.894Z,82.80
2018-07-02T06:17:51.173Z,82.80
2018-07-02T06:20:18.973Z,83.00
2018-07-02T06:22:46.659Z,83.50
2018-07-02T06:28:02.798Z,82.60
2018-07-02T06:31:29.298Z,81.30
2018-07-02T06:34:06.205Z,82.90
2018-07-02T06:42:21.597Z,82.90
2018-07-02T06:45:17.220Z,80.60
2018-07-02T06:47:44.802Z,83.40
2018-07-02T06:50:12.555Z,82.30
2018-07-02T06:53:05.700Z,80.30
2018-07-02T06:58:10.279Z,78.20
2018-07-02T07:00:38.015Z,78.30
2018-07-02T07:03:06.618Z,79.40
2018-07-02T07:05:34.921Z,80.70
2018-07-02T07:08:03.219Z,79.70
2018-07-02T07:10:30.846Z,77.80
2018-07-02T07:12:59.155Z,78.10
2018-07-02T07:15:26.915Z,81.20
2018-07-02T07:17:54.696Z,77.00
2018-07-02T07:20:24.261Z,77.30
2018-07-02T07:22:52.605Z,75.50
2018-07-02T07:25:20.776Z,73.20
2018-07-02T07:30:28.465Z,71.80
2018-07-02T07:32:56.670Z,73.60
2018-07-02T07:35:24.370Z,74.90
2018-07-02T07:37:53.523Z,72.30
2018-07-02T07:40:27.071Z,70.00
2018-07-02T07:42:55.724Z,67.30
2018-07-02T07:45:23.389Z,76.20
2018-07-02T07:47:51.082Z,68.70
2018-07-02T07:50:22.208Z,71.70
2018-07-02T07:52:50.114Z,70.20
2018-07-02T07:55:20.655Z,75.00
2018-07-02T07:57:49.733Z,61.40
2018-07-02T08:00:22.142Z,64.50
2018-07-02T08:02:49.871Z,64.50
2018-07-02T08:05:18.618Z,68.50
2018-07-02T08:07:53.416Z,66.60
2018-07-02T08:10:21.494Z,60.50
2018-07-02T08:12:50.335Z,58.80
2018-07-02T08:15:17.972Z,60.70
2018-07-02T08:17:45.996Z,64.90
2018-07-02T08:20:13.796Z,58.20
2018-07-02T08:22:42.228Z,62.10
2018-07-02T08:25:10.136Z,57.90
2018-07-02T08:27:37.976Z,60.20
2018-07-02T08:30:06.296Z,53.90
2018-07-02T08:32:33.892Z,57.10
2018-07-02T08:35:01.458Z,57.00
2018-07-02T08:37:29.010Z,63.70
2018-07-02T08:39:56.826Z,59.70
2018-07-02T08:42:24.312Z,59.40
2018-07-02T08:44:52.395Z,61.80
2018-07-02T08:47:20.031Z,61.40
2018-07-02T08:49:47.592Z,55.10
2018-07-02T08:52:15.287Z,55.20
2018-07-02T08:54:42.796Z,50.00
2018-07-02T08:57:10.445Z,49.10
2018-07-02T08:59:38.047Z,50.90
2018-07-02T09:02:06.022Z,53.50
2018-07-02T09:04:40.594Z,50.10
2018-07-02T09:07:22.564Z,47.40
2018-07-02T09:09:50.591Z,48.40
2018-07-02T09:12:20.385Z,47.20
2018-07-02T09:14:52.216Z,50.40
2018-07-02T09:17:20.104Z,44.10
2018-07-02T09:19:51.321Z,43.50
2018-07-02T09:22:20.929Z,46.40
2018-07-02T09:24:53.185Z,47.50
2018-07-02T09:27:22.234Z,48.10
2018-07-02T09:29:54.682Z,46.00
2018-07-02T09:34:59.695Z,49.40
2018-07-02T09:37:33.008Z,48.40
2018-07-02T09:40:03.791Z,48.00
2018-07-02T09:42:32.499Z,48.00
2018-07-02T09:45:20.740Z,46.30
2018-07-02T09:55:03.789Z,48.40
2018-07-02T09:57:33.591Z,45.60
2018-07-02T10:03:11.963Z,46.40
2018-07-02T10:05:41.278Z,48.80
2018-07-02T10:08:12.340Z,46.10
2018-07-02T10:11:06.410Z,43.50
2018-07-02T10:13:51.039Z,45.60
2018-07-02T10:16:34.174Z,43.50
2018-07-02T10:19:06.014Z,45.70
2018-07-02T10:21:34.615Z,44.80
2018-07-02T10:24:07.005Z,42.70
2018-07-02T10:26:41.690Z,46.30
2018-07-02T10:38:32.032Z,47.80
2018-07-02T10:41:01.416Z,44.40
2018-07-02T10:43:34.986Z,46.20
2018-07-02T10:46:12.665Z,46.00
2018-07-02T10:49:00.783Z,48.60
2018-07-02T10:54:23.632Z,45.70
2018-07-02T10:56:56.255Z,44.60
2018-07-02T10:59:28.761Z,46.20
2018-07-02T11:02:12.929Z,44.50
2018-07-02T11:04:44.875Z,45.50
2018-07-02T11:10:11.730Z,43.90
2018-07-02T11:12:40.842Z,43.20
2018-07-02T11:15:35.869Z,44.20
2018-07-02T11:18:20.881Z,46.80
2018-07-02T11:21:01.106Z,49.50
2018-07-02T11:23:40.992Z,44.10
2018-07-02T11:26:10.603Z,46.30
2018-07-02T11:28:42.114Z,44.20
2018-07-02T11:33:59.675Z,45.80
2018-07-02T11:36:30.169Z,44.50
2018-07-02T11:39:00.773Z,45.00
2018-07-02T11:41:29.397Z,42.70
2018-07-02T11:43:57.044Z,44.50
2018-07-02T11:46:24.866Z,41.00
2018-07-02T11:48:52.892Z,42.50
2018-07-02T11:51:20.961Z,44.90
2018-07-02T11:53:49.116Z,42.70
2018-07-02T11:56:17.098Z,45.90
2018-07-02T11:58:45.227Z,45.20
2018-07-02T12:01:12.872Z,41.80
2018-07-02T12:03:40.695Z,45.30
2018-07-02T12:06:11.208Z,42.10
2018-07-02T12:08:40.775Z,47.20
2018-07-02T12:11:08.543Z,47.80
2018-07-02T12:13:37.185Z,42.90
2018-07-02T12:16:05.685Z,43.10
2018-07-02T12:18:36.212Z,43.40
2018-07-02T12:23:56.713Z,45.50
2018-07-02T12:26:24.547Z,47.60
2018-07-02T12:28:52.052Z,46.10
2018-07-02T12:31:19.568Z,45.40
2018-07-02T12:33:47.532Z,46.60
2018-07-02T12:36:15.028Z,43.20
2018-07-02T12:38:42.791Z,44.40
2018-07-02T12:41:10.380Z,48.80
2018-07-02T12:43:37.970Z,47.30
2018-07-02T12:46:05.632Z,46.10
2018-07-02T12:48:33.215Z,43.20
2018-07-02T12:51:00.752Z,42.30
2018-07-02T12:53:28.313Z,48.50
2018-07-02T12:55:55.912Z,43.70
2018-07-02T12:58:23.781Z,45.70
2018-07-02T13:00:51.330Z,47.50
2018-07-02T13:03:18.853Z,50.20
2018-07-02T13:05:46.395Z,45.00
2018-07-02T13:08:13.915Z,48.30
2018-07-02T13:10:41.472Z,47.40
2018-07-02T13:13:08.976Z,45.70
2018-07-02T13:15:36.584Z,43.00
2018-07-02T13:18:04.725Z,45.70
2018-07-02T13:20:35.202Z,46.20
2018-07-02T13:23:08.521Z,47.80
2018-07-02T13:25:36.779Z,48.90
2018-07-02T13:28:04.636Z,46.40
2018-07-02T13:30:32.538Z,47.10
2018-07-02T13:33:00.056Z,46.00
2018-07-02T13:35:27.656Z,50.90
2018-07-02T13:37:57.697Z,43.90
2018-07-02T13:40:25.552Z,43.10
2018-07-02T13:42:53.315Z,44.40
2018-07-02T13:45:21.466Z,44.90
2018-07-02T13:47:50.784Z,43.40
2018-07-02T13:50:22.344Z,45.50
2018-07-02T13:52:50.811Z,45.40
2018-07-02T13:55:18.553Z,43.80
2018-07-02T13:57:46.024Z,48.20
2018-07-02T14:00:13.564Z,46.60
2018-07-02T14:02:41.411Z,43.20
2018-07-02T14:05:08.984Z,44.80
2018-07-02T14:07:36.483Z,45.20
2018-07-02T14:10:05.863Z,45.60
2018-07-02T14:12:34.048Z,49.50
2018-07-02T14:15:01.640Z,45.60
2018-07-02T14:17:29.104Z,45.70
2018-07-02T14:19:56.708Z,46.80
2018-07-02T14:22:24.540Z,47.40
2018-07-02T14:24:52.117Z,45.00
2018-07-02T14:27:19.704Z,47.60
2018-07-02T14:29:47.363Z,45.30
2018-07-02T14:32:14.944Z,46.60
2018-07-02T14:34:42.549Z,43.20
2018-07-02T14:37:10.045Z,45.00
2018-07-02T14:39:37.614Z,45.20
2018-07-02T14:42:05.142Z,46.50
2018-07-02T14:44:32.706Z,47.30
2018-07-02T14:47:00.244Z,46.00
2018-07-02T14:49:27.887Z,48.00
2018-07-02T14:51:55.515Z,48.30
2018-07-02T14:54:23.036Z,46.80
2018-07-02T14:56:50.721Z,46.00
2018-07-02T14:59:18.246Z,46.30
2018-07-02T15:01:46.040Z,46.70
2018-07-02T15:04:13.568Z,43.40
2018-07-02T15:06:41.128Z,43.10
2018-07-02T15:09:10.860Z,45.20
2018-07-02T15:11:40.827Z,46.00
2018-07-02T15:14:08.515Z,45.20
2018-07-02T15:16:36.419Z,49.40
2018-07-02T15:19:04.245Z,52.30
2018-07-02T15:21:31.734Z,53.30
2018-07-02T15:23:59.228Z,54.60
2018-07-02T15:26:26.791Z,53.30
2018-07-02T15:28:54.421Z,53.80
2018-07-02T15:31:21.938Z,56.20
2018-07-02T15:33:49.501Z,55.20
2018-07-02T15:36:16.984Z,54.90
2018-07-02T15:38:44.485Z,56.80
2018-07-02T15:41:13.985Z,57.20
2018-07-02T15:43:41.612Z,56.70
2018-07-02T15:46:09.344Z,57.50
2018-07-02T15:48:36.807Z,56.40
2018-07-02T15:51:04.409Z,56.00
2018-07-02T15:53:31.926Z,58.20
2018-07-02T15:55:59.481Z,58.10
2018-07-02T15:58:26.949Z,58.40
2018-07-02T16:00:54.502Z,59.10
2018-07-02T16:03:22.345Z,59.30
2018-07-02T16:05:49.826Z,58.50
2018-07-02T16:08:17.395Z,58.50
2018-07-02T16:10:44.924Z,58.50
2018-07-02T16:13:12.422Z,58.70
2018-07-02T16:15:39.924Z,59.70
2018-07-02T16:18:07.673Z,59.00
2018-07-02T16:20:35.144Z,57.10
2018-07-02T16:23:03.017Z,59.20
2018-07-02T16:25:30.544Z,58.30
2018-07-02T16:27:58.147Z,58.40
2018-07-02T16:30:25.632Z,58.80
2018-07-02T16:32:53.121Z,59.10
2018-07-02T16:35:20.710Z,59.40
2018-07-02T16:37:48.227Z,59.80
2018-07-02T16:40:15.721Z,61.10
2018-07-02T16:42:43.255Z,59.60
2018-07-02T16:45:10.740Z,59.10
2018-07-02T16:47:38.275Z,57.90
2018-07-02T16:50:06.188Z,59.40
2018-07-02T16:52:34.044Z,58.60
2018-07-02T16:55:01.485Z,59.30
2018-07-02T16:57:29.262Z,59.10
2018-07-02T16:59:56.887Z,58.60
2018-07-02T17:02:24.420Z,59.60
2018-07-02T17:04:52.185Z,58.70
2018-07-02T17:07:19.871Z,59.00
2018-07-02T17:09:47.562Z,58.30
2018-07-02T17:12:15.089Z,57.70
2018-07-02T17:14:42.867Z,59.00
2018-07-02T17:17:10.689Z,58.90
2018-07-02T17:19:40.007Z,59.60
2018-07-02T17:22:08.077Z,60.50
2018-07-02T17:24:35.584Z,59.90
2018-07-02T17:27:03.231Z,60.50
2018-07-02T17:29:30.796Z,61.90
2018-07-02T17:31:58.546Z,61.10
2018-07-02T17:34:26.181Z,59.20
2018-07-02T17:36:53.771Z,59.20
2018-07-02T17:39:21.781Z,60.60
2018-07-02T17:41:49.596Z,60.80
2018-07-02T17:44:17.238Z,61.10
2018-07-02T17:46:44.819Z,62.80
2018-07-02T17:49:12.424Z,61.70
2018-07-02T17:51:39.911Z,62.70
2018-07-02T17:54:07.462Z,62.40
2018-07-02T17:56:34.914Z,62.60
2018-07-02T17:59:02.425Z,63.10
2018-07-02T18:01:30.037Z,62.50
2018-07-02T18:03:57.715Z,64.40
2018-07-02T18:06:25.325Z,63.30
2018-07-02T18:12:06.089Z,65.20
2018-07-02T18:14:33.717Z,65.90
2018-07-02T18:17:01.326Z,65.90
2018-07-02T18:19:28.893Z,65.10
2018-07-02T18:21:56.500Z,65.40
2018-07-02T18:24:24.064Z,64.80
2018-07-02T18:26:51.979Z,64.50
2018-07-02T18:29:19.503Z,65.50
2018-07-02T18:31:47.141Z,66.70
2018-07-02T18:34:14.712Z,68.40
2018-07-02T18:36:42.375Z,67.90
2018-07-02T18:39:11.449Z,68.20
2018-07-02T18:41:39.130Z,66.70
2018-07-02T18:44:07.511Z,66.60
2018-07-02T18:46:35.073Z,66.20
2018-07-02T18:49:02.685Z,66.20
2018-07-02T18:51:30.176Z,65.40
2018-07-02T18:53:57.657Z,68.90
2018-07-02T18:56:25.157Z,68.20
2018-07-02T18:58:52.705Z,69.20
2018-07-02T19:01:20.248Z,67.70
2018-07-02T19:03:47.736Z,68.80
2018-07-02T19:06:15.422Z,68.10
2018-07-02T19:08:43.009Z,69.70
2018-07-02T19:11:10.472Z,68.30
2018-07-02T19:13:38.042Z,69.70
2018-07-02T19:16:05.628Z,72.40
2018-07-02T19:18:33.159Z,87.90
2018-07-02T19:21:00.638Z,90.60
2018-07-02T19:23:28.176Z,90.00
2018-07-02T19:25:55.660Z,86.70
2018-07-02T19:28:23.556Z,92.00
2018-07-02T19:30:51.209Z,86.20
2018-07-02T19:33:18.921Z,88.40
2018-07-02T19:35:46.363Z,91.10
2018-07-02T19:38:14.864Z,90.20
2018-07-02T19:40:42.436Z,90.40
2018-07-02T19:43:10.220Z,88.50
2018-07-02T19:45:37.688Z,96.40
2018-07-02T19:48:05.297Z,98.00
2018-07-02T19:50:32.773Z,99.10
2018-07-02T19:53:00.269Z,96.50
2018-07-02T19:55:27.931Z,95.10
2018-07-02T19:57:55.475Z,93.60
2018-07-02T20:00:23.036Z,93.10
2018-07-02T20:02:50.604Z,92.60
2018-07-02T20:05:18.128Z,93.10
2018-07-02T20:07:45.575Z,93.50
2018-07-02T20:10:13.220Z,94.00
2018-07-02T20:12:40.685Z,93.20
2018-07-02T20:15:08.240Z,92.50
2018-07-02T20:17:35.707Z,93.70
2018-07-02T20:20:03.681Z,93.30
2018-07-02T20:22:31.128Z,93.30
2018-07-02T20:25:02.684Z,93.50
2018-07-02T20:27:30.323Z,94.50
2018-07-02T20:30:01.345Z,94.40
2018-07-02T20:32:31.449Z,94.50
2018-07-02T20:34:59.257Z,94.40
2018-07-02T20:37:26.883Z,94.50
2018-07-02T20:39:54.404Z,94.40
2018-07-02T20:42:21.876Z,95.50
2018-07-02T20:44:49.401Z,95.80
2018-07-02T20:47:16.932Z,95.80
2018-07-02T20:49:44.559Z,95.80
2018-07-02T20:52:12.205Z,96.10
2018-07-02T20:54:39.953Z,96.90
2018-07-02T20:57:07.999Z,96.40
2018-07-02T20:59:35.483Z,96.80
2018-07-02T21:02:03.110Z,96.60
2018-07-02T21:04:30.995Z,97.60
2018-07-02T21:06:58.947Z,97.00
2018-07-02T21:09:26.445Z,97.50
2018-07-02T21:11:54.076Z,97.20
2018-07-02T21:14:21.568Z,98.10
2018-07-02T21:16:49.103Z,98.20
2018-07-02T21:19:16.697Z,98.20
2018-07-02T21:21:44.172Z,98.50
2018-07-02T21:24:11.895Z,98.00
2018-07-02T21:26:39.533Z,98.20
2018-07-02T21:29:07.148Z,97.80
2018-07-02T21:31:34.668Z,98.30
2018-07-02T21:34:02.209Z,98.60
2018-07-02T21:36:29.677Z,99.30
2018-07-02T21:38:57.274Z,99.30
2018-07-02T21:41:24.804Z,99.60
2018-07-02T21:43:52.343Z,99.70
2018-07-02T21:46:19.815Z,99.50
2018-07-02T21:48:47.408Z,99.90
2018-07-02T21:51:15.006Z,99.90
2018-07-02T21:53:42.540Z,99.90
2018-07-02T21:56:10.004Z,99.90
2018-07-02T21:58:37.552Z,99.90
2018-07-02T22:03:32.445Z,99.90
2018-07-02T22:05:59.996Z,99.90
2018-07-02T22:08:27.787Z,99.90
2018-07-02T22:10:55.307Z,99.90
2018-07-02T22:13:22.889Z,99.90
2018-07-02T22:15:50.388Z,99.90
2018-07-02T22:18:17.863Z,99.90
2018-07-02T22:23:20.873Z,99.90
2018-07-02T22:25:48.861Z,99.90
2018-07-02T22:28:16.413Z,99.90
2018-07-02T22:30:43.940Z,99.90
2018-07-02T22:33:11.457Z,99.90
2018-07-02T22:35:38.982Z,99.90
2018-07-02T22:38:06.691Z,99.90
2018-07-02T22:40:34.293Z,99.90
2018-07-02T22:43:01.792Z,99.90
2018-07-02T22:45:29.327Z,99.90
2018-07-02T22:47:57.080Z,99.90
2018-07-02T22:50:24.742Z,99.90
2018-07-02T22:52:52.199Z,99.90
2018-07-02T22:55:19.667Z,99.90
2018-07-02T22:57:47.143Z,99.90
2018-07-02T23:00:14.699Z,99.90
2018-07-02T23:02:42.195Z,99.90
2018-07-02T23:05:10.168Z,99.90
2018-07-02T23:07:37.773Z,99.90
2018-07-02T23:10:05.384Z,99.90
2018-07-02T23:12:32.861Z,99.90
2018-07-02T23:15:00.373Z,99.90
2018-07-02T23:17:27.895Z,99.90
2018-07-02T23:19:55.467Z,99.90
2018-07-02T23:22:23.101Z,99.90
2018-07-02T23:24:50.656Z,99.90
2018-07-02T23:27:18.216Z,99.90
2018-07-02T23:29:45.756Z,99.90
2018-07-02T23:32:13.280Z,99.90
2018-07-02T23:34:40.828Z,99.90
2018-07-02T23:37:08.303Z,99.90
2018-07-02T23:39:35.811Z,99.90
2018-07-02T23:44:30.694Z,99.90
2018-07-02T23:46:58.268Z,99.90
2018-07-02T23:49:25.796Z,99.90
2018-07-02T23:51:53.634Z,99.90
2018-07-02T23:54:21.155Z,99.90
2018-07-02T23:56:48.665Z,99.90
2018-07-02T23:59:16.335Z,99.90
